This is the latest recevied weather packets stored in our database for station/object CE4JVU-10. If no packets are shown the sender has not sent any weather packets the latest 1 day(s).
| Time | Temp. | Humidity | Pressure | Rain* | Wind** | Luminosity | Snow |
|---|---|---|---|---|---|---|---|
| 1777866913 | 18.33° C | 49% | 982.2 hPa | - | - | - | - |
| 1777865113 | 18.89° C | 48% | 982.3 hPa | - | - | - | - |
| 1777863313 | 18.89° C | 48% | 982.2 hPa | - | - | - | - |
| 1777861512 | 18.89° C | 48% | 982.5 hPa | - | - | - | - |
| 1777859712 | 18.33° C | 49% | 982.5 hPa | - | - | - | - |
| 1777857912 | 18.33° C | 50% | 982.3 hPa | - | - | - | - |
| 1777856112 | 18.89° C | 50% | 982.1 hPa | - | - | - | - |
| 1777854312 | 18.89° C | 47% | 982 hPa | - | - | - | - |
| 1777852511 | 18.89° C | 45% | 982 hPa | - | - | - | - |
| 1777850711 | 19.44° C | 41% | 981.9 hPa | - | - | - | - |
| 1777848911 | 19.44° C | 39% | 981.8 hPa | - | - | - | - |
| 1777847112 | 20° C | 39% | 981.6 hPa | - | - | - | - |
| 1777843512 | 22.22° C | 35% | 981.4 hPa | - | - | - | - |
| 1777841712 | 22.22° C | 35% | 981.1 hPa | - | - | - | - |
| 1777839911 | 22.22° C | 38% | 981.1 hPa | - | - | - | - |
| 1777838111 | 22.22° C | 38% | 981.3 hPa | - | - | - | - |
| 1777836311 | 22.78° C | 37% | 981.1 hPa | - | - | - | - |
| 1777834511 | 22.78° C | 38% | 980.9 hPa | - | - | - | - |
| 1777832711 | 22.22° C | 41% | 980.9 hPa | - | - | - | - |
| 1777830911 | 21.11° C | 45% | 981.1 hPa | - | - | - | - |
| 1777829110 | 20.56° C | 45% | 981.5 hPa | - | - | - | - |
| 1777827310 | 19.44° C | 47% | 981.8 hPa | - | - | - | - |
* Rain since midnight (hover to see other rain measurements)
** Current wind speed in m/s (hover to see current wind gust speed)